sensor_id;sensor_type;location;lat;lon;timestamp;temperature;humidity
65146;DHT22;51730;56.950;24.126;2022-12-07T00:01:35;0.10;99.90
65146;DHT22;51730;56.950;24.126;2022-12-07T00:04:04;0.10;99.90
65146;DHT22;51730;56.950;24.126;2022-12-07T00:06:33;0.20;99.90
65146;DHT22;51730;56.950;24.126;2022-12-07T00:09:00;0.20;99.90
65146;DHT22;51730;56.950;24.126;2022-12-07T00:11:27;0.20;99.90
65146;DHT22;51730;56.950;24.126;2022-12-07T00:13:57;0.20;99.90
65146;DHT22;51730;56.950;24.126;2022-12-07T00:16:26;0.10;99.90
65146;DHT22;51730;56.950;24.126;2022-12-07T00:18:54;0.10;99.90
65146;DHT22;51730;56.950;24.126;2022-12-07T00:21:29;0.10;99.90
65146;DHT22;51730;56.950;24.126;2022-12-07T00:23:57;0.20;99.90
65146;DHT22;51730;56.950;24.126;2022-12-07T00:28:58;0.10;99.90
65146;DHT22;51730;56.950;24.126;2022-12-07T00:31:28;0.20;99.90
65146;DHT22;51730;56.950;24.126;2022-12-07T00:33:57;0.20;99.90
65146;DHT22;51730;56.950;24.126;2022-12-07T00:36:25;0.20;99.90
65146;DHT22;51730;56.950;24.126;2022-12-07T00:38:54;0.20;99.90
65146;DHT22;51730;56.950;24.126;2022-12-07T00:41:26;0.20;99.90
65146;DHT22;51730;56.950;24.126;2022-12-07T00:43:54;0.10;99.90
65146;DHT22;51730;56.950;24.126;2022-12-07T00:46:21;0.20;99.90
65146;DHT22;51730;56.950;24.126;2022-12-07T00:48:50;0.10;99.90
65146;DHT22;51730;56.950;24.126;2022-12-07T00:51:20;0.10;99.90
65146;DHT22;51730;56.950;24.126;2022-12-07T00:53:48;0.00;99.90
65146;DHT22;51730;56.950;24.126;2022-12-07T00:56:16;0.10;99.90
65146;DHT22;51730;56.950;24.126;2022-12-07T00:59:06;0.00;99.90
65146;DHT22;51730;56.950;24.126;2022-12-07T01:01:36;0.10;99.90
65146;DHT22;51730;56.950;24.126;2022-12-07T01:04:04;0.00;99.90
65146;DHT22;51730;56.950;24.126;2022-12-07T01:06:34;0.10;99.90
65146;DHT22;51730;56.950;24.126;2022-12-07T01:09:01;0.10;99.90
65146;DHT22;51730;56.950;24.126;2022-12-07T01:11:29;0.20;99.90
65146;DHT22;51730;56.950;24.126;2022-12-07T01:13:58;0.20;99.90
65146;DHT22;51730;56.950;24.126;2022-12-07T01:16:28;0.10;99.90
65146;DHT22;51730;56.950;24.126;2022-12-07T01:18:56;0.10;99.90
65146;DHT22;51730;56.950;24.126;2022-12-07T01:21:29;0.10;99.90
65146;DHT22;51730;56.950;24.126;2022-12-07T01:23:59;0.00;99.90
65146;DHT22;51730;56.950;24.126;2022-12-07T01:26:26;0.10;99.90
65146;DHT22;51730;56.950;24.126;2022-12-07T01:28:54;0.10;99.90
65146;DHT22;51730;56.950;24.126;2022-12-07T01:31:24;0.10;99.90
65146;DHT22;51730;56.950;24.126;2022-12-07T01:33:54;0.20;99.90
65146;DHT22;51730;56.950;24.126;2022-12-07T01:38:50;0.10;99.90
65146;DHT22;51730;56.950;24.126;2022-12-07T01:41:25;0.10;99.90
65146;DHT22;51730;56.950;24.126;2022-12-07T01:44:13;0.10;99.90
65146;DHT22;51730;56.950;24.126;2022-12-07T01:47:02;0.10;99.90
65146;DHT22;51730;56.950;24.126;2022-12-07T01:49:37;0.00;99.90
65146;DHT22;51730;56.950;24.126;2022-12-07T01:54:45;0.10;99.90
65146;DHT22;51730;56.950;24.126;2022-12-07T01:57:14;0.10;99.90
65146;DHT22;51730;56.950;24.126;2022-12-07T01:59:44;0.10;99.90
65146;DHT22;51730;56.950;24.126;2022-12-07T02:02:18;0.20;99.90
65146;DHT22;51730;56.950;24.126;2022-12-07T02:04:46;0.10;99.90
65146;DHT22;51730;56.950;24.126;2022-12-07T02:07:13;0.10;99.90
65146;DHT22;51730;56.950;24.126;2022-12-07T02:09:40;0.10;99.90
65146;DHT22;51730;56.950;24.126;2022-12-07T02:12:07;0.10;99.90
65146;DHT22;51730;56.950;24.126;2022-12-07T02:14:34;0.10;99.90
65146;DHT22;51730;56.950;24.126;2022-12-07T02:31:33;0.10;99.90
65146;DHT22;51730;56.950;24.126;2022-12-07T02:34:09;0.10;99.90
65146;DHT22;51730;56.950;24.126;2022-12-07T02:36:43;0.10;99.90
65146;DHT22;51730;56.950;24.126;2022-12-07T02:39:19;0.10;99.90
65146;DHT22;51730;56.950;24.126;2022-12-07T02:41:54;0.10;99.90
65146;DHT22;51730;56.950;24.126;2022-12-07T02:44:25;0.10;99.90
65146;DHT22;51730;56.950;24.126;2022-12-07T02:46:59;0.10;99.90
65146;DHT22;51730;56.950;24.126;2022-12-07T02:49:26;0.00;99.90
65146;DHT22;51730;56.950;24.126;2022-12-07T02:51:56;0.00;99.90
65146;DHT22;51730;56.950;24.126;2022-12-07T02:54:23;0.10;99.90
65146;DHT22;51730;56.950;24.126;2022-12-07T03:16:18;0.00;99.90
65146;DHT22;51730;56.950;24.126;2022-12-07T03:18:52;0.10;99.90
65146;DHT22;51730;56.950;24.126;2022-12-07T03:21:25;0.10;99.90
65146;DHT22;51730;56.950;24.126;2022-12-07T03:23:59;0.00;99.90
65146;DHT22;51730;56.950;24.126;2022-12-07T03:26:38;0.10;99.90
65146;DHT22;51730;56.950;24.126;2022-12-07T03:29:14;0.00;99.90
65146;DHT22;51730;56.950;24.126;2022-12-07T03:31:48;0.00;99.90
65146;DHT22;51730;56.950;24.126;2022-12-07T03:34:37;0.00;99.90
65146;DHT22;51730;56.950;24.126;2022-12-07T03:37:16;0.00;99.90
65146;DHT22;51730;56.950;24.126;2022-12-07T03:40:45;-0.10;99.90
65146;DHT22;51730;56.950;24.126;2022-12-07T03:42:44;0.00;99.90
65146;DHT22;51730;56.950;24.126;2022-12-07T03:45:12;0.00;99.90
65146;DHT22;51730;56.950;24.126;2022-12-07T03:51:14;0.00;99.90
65146;DHT22;51730;56.950;24.126;2022-12-07T03:54:07;0.00;99.90
65146;DHT22;51730;56.950;24.126;2022-12-07T03:56:36;0.00;99.90
65146;DHT22;51730;56.950;24.126;2022-12-07T03:59:05;0.10;99.90
65146;DHT22;51730;56.950;24.126;2022-12-07T04:01:34;0.00;99.90
65146;DHT22;51730;56.950;24.126;2022-12-07T04:04:02;0.10;99.90
65146;DHT22;51730;56.950;24.126;2022-12-07T04:06:30;0.10;99.90
65146;DHT22;51730;56.950;24.126;2022-12-07T04:08:57;0.00;99.90
65146;DHT22;51730;56.950;24.126;2022-12-07T04:11:24;0.10;99.90
65146;DHT22;51730;56.950;24.126;2022-12-07T04:13:51;0.10;99.90
65146;DHT22;51730;56.950;24.126;2022-12-07T04:16:37;0.10;99.90
65146;DHT22;51730;56.950;24.126;2022-12-07T04:19:10;0.00;99.90
65146;DHT22;51730;56.950;24.126;2022-12-07T04:21:41;0.00;99.90
65146;DHT22;51730;56.950;24.126;2022-12-07T04:24:11;0.10;99.90
65146;DHT22;51730;56.950;24.126;2022-12-07T04:26:38;0.10;99.90
65146;DHT22;51730;56.950;24.126;2022-12-07T04:29:08;0.10;99.90
65146;DHT22;51730;56.950;24.126;2022-12-07T04:31:36;0.10;99.90
65146;DHT22;51730;56.950;24.126;2022-12-07T04:34:04;0.00;99.90
65146;DHT22;51730;56.950;24.126;2022-12-07T04:36:32;0.10;99.90
65146;DHT22;51730;56.950;24.126;2022-12-07T04:38:59;0.00;99.90
65146;DHT22;51730;56.950;24.126;2022-12-07T04:41:27;0.10;99.90
65146;DHT22;51730;56.950;24.126;2022-12-07T04:44:02;0.00;99.90
65146;DHT22;51730;56.950;24.126;2022-12-07T04:46:31;0.00;99.90
65146;DHT22;51730;56.950;24.126;2022-12-07T04:48:58;0.00;99.90
65146;DHT22;51730;56.950;24.126;2022-12-07T04:51:27;0.10;99.90
65146;DHT22;51730;56.950;24.126;2022-12-07T04:53:55;0.10;99.90
65146;DHT22;51730;56.950;24.126;2022-12-07T04:56:23;0.00;99.90
65146;DHT22;51730;56.950;24.126;2022-12-07T04:58:54;0.00;99.90
65146;DHT22;51730;56.950;24.126;2022-12-07T05:01:22;0.00;99.90
65146;DHT22;51730;56.950;24.126;2022-12-07T05:03:49;0.00;99.90
65146;DHT22;51730;56.950;24.126;2022-12-07T05:06:16;0.10;99.90
65146;DHT22;51730;56.950;24.126;2022-12-07T05:08:43;0.00;99.90
65146;DHT22;51730;56.950;24.126;2022-12-07T05:11:11;0.00;99.90
65146;DHT22;51730;56.950;24.126;2022-12-07T05:13:58;0.00;99.90
65146;DHT22;51730;56.950;24.126;2022-12-07T05:16:26;0.00;99.90
65146;DHT22;51730;56.950;24.126;2022-12-07T05:18:54;0.00;99.90
65146;DHT22;51730;56.950;24.126;2022-12-07T05:21:21;0.00;99.90
65146;DHT22;51730;56.950;24.126;2022-12-07T05:23:48;0.10;99.90
65146;DHT22;51730;56.950;24.126;2022-12-07T05:26:15;0.00;99.90
65146;DHT22;51730;56.950;24.126;2022-12-07T05:28:42;0.10;99.90
65146;DHT22;51730;56.950;24.126;2022-12-07T05:31:09;0.00;99.90
65146;DHT22;51730;56.950;24.126;2022-12-07T05:33:36;0.10;99.90
65146;DHT22;51730;56.950;24.126;2022-12-07T05:36:03;0.00;99.90
65146;DHT22;51730;56.950;24.126;2022-12-07T05:38:33;0.10;99.90
65146;DHT22;51730;56.950;24.126;2022-12-07T05:41:05;0.00;99.90
65146;DHT22;51730;56.950;24.126;2022-12-07T05:43:33;0.10;99.90
65146;DHT22;51730;56.950;24.126;2022-12-07T05:46:00;0.10;99.90
65146;DHT22;51730;56.950;24.126;2022-12-07T05:48:27;0.20;99.90
65146;DHT22;51730;56.950;24.126;2022-12-07T05:50:55;0.10;99.90
65146;DHT22;51730;56.950;24.126;2022-12-07T05:53:23;0.10;99.90
65146;DHT22;51730;56.950;24.126;2022-12-07T05:55:52;0.10;99.90
65146;DHT22;51730;56.950;24.126;2022-12-07T05:58:19;0.10;99.90
65146;DHT22;51730;56.950;24.126;2022-12-07T06:01:05;0.20;99.90
65146;DHT22;51730;56.950;24.126;2022-12-07T06:03:32;0.10;99.90
65146;DHT22;51730;56.950;24.126;2022-12-07T06:05:59;0.20;99.90
65146;DHT22;51730;56.950;24.126;2022-12-07T06:08:26;0.10;99.90
65146;DHT22;51730;56.950;24.126;2022-12-07T06:10:54;0.20;99.90
65146;DHT22;51730;56.950;24.126;2022-12-07T06:13:42;0.20;99.90
65146;DHT22;51730;56.950;24.126;2022-12-07T06:16:13;0.10;99.90
65146;DHT22;51730;56.950;24.126;2022-12-07T06:18:41;0.10;99.90
65146;DHT22;51730;56.950;24.126;2022-12-07T06:21:08;0.10;99.90
65146;DHT22;51730;56.950;24.126;2022-12-07T06:23:35;0.10;99.90
65146;DHT22;51730;56.950;24.126;2022-12-07T06:26:01;0.20;99.90
65146;DHT22;51730;56.950;24.126;2022-12-07T06:28:28;0.20;99.90
65146;DHT22;51730;56.950;24.126;2022-12-07T06:31:02;0.10;99.90
65146;DHT22;51730;56.950;24.126;2022-12-07T06:33:29;0.10;99.90
65146;DHT22;51730;56.950;24.126;2022-12-07T06:35:56;0.10;99.90
65146;DHT22;51730;56.950;24.126;2022-12-07T06:38:24;0.10;99.90
65146;DHT22;51730;56.950;24.126;2022-12-07T06:40:51;0.10;99.90
65146;DHT22;51730;56.950;24.126;2022-12-07T06:43:18;0.10;99.90
65146;DHT22;51730;56.950;24.126;2022-12-07T06:45:45;0.00;99.90
65146;DHT22;51730;56.950;24.126;2022-12-07T06:48:12;0.10;99.90
65146;DHT22;51730;56.950;24.126;2022-12-07T06:50:45;0.00;99.90
65146;DHT22;51730;56.950;24.126;2022-12-07T06:53:20;0.10;99.90
65146;DHT22;51730;56.950;24.126;2022-12-07T06:55:48;0.10;99.90
65146;DHT22;51730;56.950;24.126;2022-12-07T06:58:15;0.20;99.90
65146;DHT22;51730;56.950;24.126;2022-12-07T07:00:42;0.00;99.90
65146;DHT22;51730;56.950;24.126;2022-12-07T07:03:09;0.10;99.90
65146;DHT22;51730;56.950;24.126;2022-12-07T07:05:36;0.10;99.90
65146;DHT22;51730;56.950;24.126;2022-12-07T07:08:06;0.10;99.90
65146;DHT22;51730;56.950;24.126;2022-12-07T07:10:49;0.10;99.90
65146;DHT22;51730;56.950;24.126;2022-12-07T07:13:16;0.10;99.90
65146;DHT22;51730;56.950;24.126;2022-12-07T07:15:46;0.10;99.90
65146;DHT22;51730;56.950;24.126;2022-12-07T07:18:13;0.20;99.90
65146;DHT22;51730;56.950;24.126;2022-12-07T07:20:40;0.10;99.90
65146;DHT22;51730;56.950;24.126;2022-12-07T07:23:07;0.10;99.90
65146;DHT22;51730;56.950;24.126;2022-12-07T07:25:34;0.10;99.90
65146;DHT22;51730;56.950;24.126;2022-12-07T07:28:01;0.10;99.90
65146;DHT22;51730;56.950;24.126;2022-12-07T07:30:28;0.00;99.90
65146;DHT22;51730;56.950;24.126;2022-12-07T07:32:59;0.10;99.90
65146;DHT22;51730;56.950;24.126;2022-12-07T07:35:27;0.10;99.90
65146;DHT22;51730;56.950;24.126;2022-12-07T07:37:54;0.10;99.90
65146;DHT22;51730;56.950;24.126;2022-12-07T07:40:21;0.10;99.90
65146;DHT22;51730;56.950;24.126;2022-12-07T07:42:51;0.10;99.90
65146;DHT22;51730;56.950;24.126;2022-12-07T07:45:19;0.10;99.90
65146;DHT22;51730;56.950;24.126;2022-12-07T07:47:48;0.00;99.90
65146;DHT22;51730;56.950;24.126;2022-12-07T07:50:16;0.20;99.90
65146;DHT22;51730;56.950;24.126;2022-12-07T07:52:43;0.10;99.90
65146;DHT22;51730;56.950;24.126;2022-12-07T07:55:11;0.10;99.90
65146;DHT22;51730;56.950;24.126;2022-12-07T07:57:40;0.10;99.90
65146;DHT22;51730;56.950;24.126;2022-12-07T08:00:13;0.10;99.90
65146;DHT22;51730;56.950;24.126;2022-12-07T08:02:41;0.20;99.90
65146;DHT22;51730;56.950;24.126;2022-12-07T08:05:10;0.20;99.90
65146;DHT22;51730;56.950;24.126;2022-12-07T08:07:38;0.20;99.90
65146;DHT22;51730;56.950;24.126;2022-12-07T08:10:07;0.10;99.90
65146;DHT22;51730;56.950;24.126;2022-12-07T08:12:37;0.10;99.90
65146;DHT22;51730;56.950;24.126;2022-12-07T08:15:25;0.10;99.90
65146;DHT22;51730;56.950;24.126;2022-12-07T08:17:53;0.10;99.90
65146;DHT22;51730;56.950;24.126;2022-12-07T08:20:20;0.00;99.90
65146;DHT22;51730;56.950;24.126;2022-12-07T08:22:47;0.20;99.90
65146;DHT22;51730;56.950;24.126;2022-12-07T08:25:14;0.10;99.90
65146;DHT22;51730;56.950;24.126;2022-12-07T08:27:41;0.00;99.90
65146;DHT22;51730;56.950;24.126;2022-12-07T08:30:08;0.00;99.90
65146;DHT22;51730;56.950;24.126;2022-12-07T08:32:35;0.00;99.90
65146;DHT22;51730;56.950;24.126;2022-12-07T08:35:02;0.00;99.90
65146;DHT22;51730;56.950;24.126;2022-12-07T08:37:29;0.00;99.90
65146;DHT22;51730;56.950;24.126;2022-12-07T08:39:56;0.10;99.90
65146;DHT22;51730;56.950;24.126;2022-12-07T08:42:24;0.00;99.90
65146;DHT22;51730;56.950;24.126;2022-12-07T08:44:57;0.00;99.90
65146;DHT22;51730;56.950;24.126;2022-12-07T08:47:25;0.10;99.90
65146;DHT22;51730;56.950;24.126;2022-12-07T08:49:53;0.10;99.90
65146;DHT22;51730;56.950;24.126;2022-12-07T08:52:20;0.10;99.90
65146;DHT22;51730;56.950;24.126;2022-12-07T08:54:48;0.10;99.90
65146;DHT22;51730;56.950;24.126;2022-12-07T08:57:15;0.10;99.90
65146;DHT22;51730;56.950;24.126;2022-12-07T08:59:42;0.10;99.90
65146;DHT22;51730;56.950;24.126;2022-12-07T09:02:09;0.10;99.90
65146;DHT22;51730;56.950;24.126;2022-12-07T09:04:36;0.10;99.90
65146;DHT22;51730;56.950;24.126;2022-12-07T09:07:04;0.10;99.90
65146;DHT22;51730;56.950;24.126;2022-12-07T09:09:31;0.10;99.90
65146;DHT22;51730;56.950;24.126;2022-12-07T09:11:59;0.10;99.90
65146;DHT22;51730;56.950;24.126;2022-12-07T09:14:26;0.00;99.90
65146;DHT22;51730;56.950;24.126;2022-12-07T09:16:53;0.10;99.90
65146;DHT22;51730;56.950;24.126;2022-12-07T09:19:20;0.20;99.90
65146;DHT22;51730;56.950;24.126;2022-12-07T09:21:47;0.20;99.90
65146;DHT22;51730;56.950;24.126;2022-12-07T09:24:13;0.20;99.90
65146;DHT22;51730;56.950;24.126;2022-12-07T09:26:40;0.30;99.90
65146;DHT22;51730;56.950;24.126;2022-12-07T09:29:07;0.20;99.90
65146;DHT22;51730;56.950;24.126;2022-12-07T09:31:36;0.10;99.90
65146;DHT22;51730;56.950;24.126;2022-12-07T09:34:04;0.20;99.90
65146;DHT22;51730;56.950;24.126;2022-12-07T09:36:33;0.10;99.90
65146;DHT22;51730;56.950;24.126;2022-12-07T09:39:00;0.10;99.90
65146;DHT22;51730;56.950;24.126;2022-12-07T09:41:30;0.00;99.90
65146;DHT22;51730;56.950;24.126;2022-12-07T09:44:11;0.00;99.90
65146;DHT22;51730;56.950;24.126;2022-12-07T09:46:41;0.00;99.90
65146;DHT22;51730;56.950;24.126;2022-12-07T09:49:14;0.00;99.90
65146;DHT22;51730;56.950;24.126;2022-12-07T09:51:43;0.10;99.90
65146;DHT22;51730;56.950;24.126;2022-12-07T09:54:13;0.10;99.90
65146;DHT22;51730;56.950;24.126;2022-12-07T09:56:41;0.00;99.90
65146;DHT22;51730;56.950;24.126;2022-12-07T09:59:17;0.10;99.90
65146;DHT22;51730;56.950;24.126;2022-12-07T10:01:48;0.10;99.90
65146;DHT22;51730;56.950;24.126;2022-12-07T10:04:22;0.10;99.90
65146;DHT22;51730;56.950;24.126;2022-12-07T10:06:49;0.10;99.90
65146;DHT22;51730;56.950;24.126;2022-12-07T10:09:21;0.10;99.90
65146;DHT22;51730;56.950;24.126;2022-12-07T10:12:03;0.00;99.90
65146;DHT22;51730;56.950;24.126;2022-12-07T10:14:32;0.00;99.90
65146;DHT22;51730;56.950;24.126;2022-12-07T10:17:36;0.10;99.90
65146;DHT22;51730;56.950;24.126;2022-12-07T10:23:05;0.00;99.90
65146;DHT22;51730;56.950;24.126;2022-12-07T10:25:39;0.10;99.90
65146;DHT22;51730;56.950;24.126;2022-12-07T10:28:14;0.20;99.90
65146;DHT22;51730;56.950;24.126;2022-12-07T10:31:17;0.10;99.90
65146;DHT22;51730;56.950;24.126;2022-12-07T10:33:52;0.10;99.90
65146;DHT22;51730;56.950;24.126;2022-12-07T10:39:24;0.10;99.90
65146;DHT22;51730;56.950;24.126;2022-12-07T10:42:01;0.20;99.90
65146;DHT22;51730;56.950;24.126;2022-12-07T10:44:31;0.10;99.90
65146;DHT22;51730;56.950;24.126;2022-12-07T10:52:51;0.10;99.90
65146;DHT22;51730;56.950;24.126;2022-12-07T11:03:37;0.00;99.90
65146;DHT22;51730;56.950;24.126;2022-12-07T11:06:17;0.10;99.90
65146;DHT22;51730;56.950;24.126;2022-12-07T11:08:55;0.00;99.90
65146;DHT22;51730;56.950;24.126;2022-12-07T11:11:44;0.00;99.90
65146;DHT22;51730;56.950;24.126;2022-12-07T11:14:44;0.10;99.90
65146;DHT22;51730;56.950;24.126;2022-12-07T11:17:24;0.00;99.90
65146;DHT22;51730;56.950;24.126;2022-12-07T11:20:45;0.10;99.90
65146;DHT22;51730;56.950;24.126;2022-12-07T11:25:49;0.10;99.90
65146;DHT22;51730;56.950;24.126;2022-12-07T11:31:24;0.20;99.90
65146;DHT22;51730;56.950;24.126;2022-12-07T11:34:09;0.10;99.90
65146;DHT22;51730;56.950;24.126;2022-12-07T11:36:48;0.00;99.90
65146;DHT22;51730;56.950;24.126;2022-12-07T11:39:36;0.10;99.90
65146;DHT22;51730;56.950;24.126;2022-12-07T11:42:14;0.10;99.90
65146;DHT22;51730;56.950;24.126;2022-12-07T11:47:40;0.10;99.90
65146;DHT22;51730;56.950;24.126;2022-12-07T11:50:25;0.20;99.90
65146;DHT22;51730;56.950;24.126;2022-12-07T11:55:49;0.00;99.90
65146;DHT22;51730;56.950;24.126;2022-12-07T12:06:37;0.10;99.90
65146;DHT22;51730;56.950;24.126;2022-12-07T12:09:18;0.10;99.90
65146;DHT22;51730;56.950;24.126;2022-12-07T12:21:14;0.20;99.90
65146;DHT22;51730;56.950;24.126;2022-12-07T12:23:55;0.20;99.90
65146;DHT22;51730;56.950;24.126;2022-12-07T12:26:27;0.40;99.90
65146;DHT22;51730;56.950;24.126;2022-12-07T12:33:57;0.10;99.90
65146;DHT22;51730;56.950;24.126;2022-12-07T12:36:45;0.00;99.90
65146;DHT22;51730;56.950;24.126;2022-12-07T12:39:16;-0.10;99.90
65146;DHT22;51730;56.950;24.126;2022-12-07T12:47:04;-0.10;99.90
65146;DHT22;51730;56.950;24.126;2022-12-07T12:53:21;-0.10;99.90
65146;DHT22;51730;56.950;24.126;2022-12-07T12:58:34;-0.10;99.90
65146;DHT22;51730;56.950;24.126;2022-12-07T13:03:59;-0.10;99.90
65146;DHT22;51730;56.950;24.126;2022-12-07T13:08:56;-0.10;99.90
65146;DHT22;51730;56.950;24.126;2022-12-07T13:17:54;0.00;99.90
65146;DHT22;51730;56.950;24.126;2022-12-07T13:24:16;-0.10;99.90
65146;DHT22;51730;56.950;24.126;2022-12-07T13:27:27;-0.10;99.90
65146;DHT22;51730;56.950;24.126;2022-12-07T13:33:45;-0.10;99.90
65146;DHT22;51730;56.950;24.126;2022-12-07T13:36:55;-0.10;99.90
65146;DHT22;51730;56.950;24.126;2022-12-07T13:40:16;-0.20;99.90
65146;DHT22;51730;56.950;24.126;2022-12-07T13:43:19;-0.10;99.90
65146;DHT22;51730;56.950;24.126;2022-12-07T13:45:58;-0.10;99.90
65146;DHT22;51730;56.950;24.126;2022-12-07T13:48:33;-0.10;99.90
65146;DHT22;51730;56.950;24.126;2022-12-07T13:51:04;-0.10;99.90
65146;DHT22;51730;56.950;24.126;2022-12-07T13:53:49;-0.10;99.90
65146;DHT22;51730;56.950;24.126;2022-12-07T13:56:17;-0.10;99.90
65146;DHT22;51730;56.950;24.126;2022-12-07T13:58:44;-0.20;99.90
65146;DHT22;51730;56.950;24.126;2022-12-07T14:01:12;-0.10;99.90
65146;DHT22;51730;56.950;24.126;2022-12-07T14:03:40;-0.20;99.90
65146;DHT22;51730;56.950;24.126;2022-12-07T14:06:14;-0.10;99.90
65146;DHT22;51730;56.950;24.126;2022-12-07T14:08:43;-0.10;99.90
65146;DHT22;51730;56.950;24.126;2022-12-07T14:11:16;-0.20;99.90
65146;DHT22;51730;56.950;24.126;2022-12-07T14:13:59;-0.20;99.90
65146;DHT22;51730;56.950;24.126;2022-12-07T14:16:33;-0.20;99.90
65146;DHT22;51730;56.950;24.126;2022-12-07T14:19:05;-0.30;99.90
65146;DHT22;51730;56.950;24.126;2022-12-07T14:21:34;-0.20;99.90
65146;DHT22;51730;56.950;24.126;2022-12-07T14:24:18;-0.30;99.90
65146;DHT22;51730;56.950;24.126;2022-12-07T14:26:48;-0.30;99.90
65146;DHT22;51730;56.950;24.126;2022-12-07T14:29:37;-0.30;99.90
65146;DHT22;51730;56.950;24.126;2022-12-07T14:32:28;-0.30;99.90
65146;DHT22;51730;56.950;24.126;2022-12-07T14:34:59;-0.20;99.90
65146;DHT22;51730;56.950;24.126;2022-12-07T14:37:29;-0.20;99.90
65146;DHT22;51730;56.950;24.126;2022-12-07T14:39:56;-0.30;99.90
65146;DHT22;51730;56.950;24.126;2022-12-07T14:42:27;-0.30;99.90
65146;DHT22;51730;56.950;24.126;2022-12-07T14:44:56;-0.20;99.90
65146;DHT22;51730;56.950;24.126;2022-12-07T14:47:25;-0.40;99.90
65146;DHT22;51730;56.950;24.126;2022-12-07T14:50:17;-0.30;99.90
65146;DHT22;51730;56.950;24.126;2022-12-07T14:53:12;-0.30;99.90
65146;DHT22;51730;56.950;24.126;2022-12-07T14:55:51;-0.30;99.90
65146;DHT22;51730;56.950;24.126;2022-12-07T14:58:19;-0.30;99.90
65146;DHT22;51730;56.950;24.126;2022-12-07T15:00:47;-0.40;99.90
65146;DHT22;51730;56.950;24.126;2022-12-07T15:03:15;-0.30;99.90
65146;DHT22;51730;56.950;24.126;2022-12-07T15:05:42;-0.30;99.90
65146;DHT22;51730;56.950;24.126;2022-12-07T15:08:13;-0.20;99.90
65146;DHT22;51730;56.950;24.126;2022-12-07T15:10:40;-0.30;99.90
65146;DHT22;51730;56.950;24.126;2022-12-07T15:13:10;-0.30;99.90
65146;DHT22;51730;56.950;24.126;2022-12-07T15:15:56;-0.30;99.90
65146;DHT22;51730;56.950;24.126;2022-12-07T15:18:24;-0.30;99.90
65146;DHT22;51730;56.950;24.126;2022-12-07T15:20:51;-0.20;99.90
65146;DHT22;51730;56.950;24.126;2022-12-07T15:23:18;-0.30;99.90
65146;DHT22;51730;56.950;24.126;2022-12-07T15:25:47;-0.20;99.90
65146;DHT22;51730;56.950;24.126;2022-12-07T15:28:14;-0.20;99.90
65146;DHT22;51730;56.950;24.126;2022-12-07T15:30:42;-0.30;99.90
65146;DHT22;51730;56.950;24.126;2022-12-07T15:33:11;-0.30;99.90
65146;DHT22;51730;56.950;24.126;2022-12-07T15:35:44;-0.20;99.90
65146;DHT22;51730;56.950;24.126;2022-12-07T15:38:11;-0.30;99.90
65146;DHT22;51730;56.950;24.126;2022-12-07T15:40:40;-0.30;99.90
65146;DHT22;51730;56.950;24.126;2022-12-07T15:43:09;-0.30;99.90
65146;DHT22;51730;56.950;24.126;2022-12-07T15:45:57;-0.30;99.90
65146;DHT22;51730;56.950;24.126;2022-12-07T15:48:53;-0.30;99.90
65146;DHT22;51730;56.950;24.126;2022-12-07T15:51:19;-0.20;99.90
65146;DHT22;51730;56.950;24.126;2022-12-07T15:53:50;-0.10;99.90
65146;DHT22;51730;56.950;24.126;2022-12-07T15:56:17;-0.20;99.90
65146;DHT22;51730;56.950;24.126;2022-12-07T15:58:44;-0.30;99.90
65146;DHT22;51730;56.950;24.126;2022-12-07T16:01:16;-0.30;99.90
65146;DHT22;51730;56.950;24.126;2022-12-07T16:03:44;-0.20;99.90
65146;DHT22;51730;56.950;24.126;2022-12-07T16:06:11;-0.30;99.90
65146;DHT22;51730;56.950;24.126;2022-12-07T16:08:43;-0.20;99.90
65146;DHT22;51730;56.950;24.126;2022-12-07T16:11:10;-0.30;99.90
65146;DHT22;51730;56.950;24.126;2022-12-07T16:13:38;-0.30;99.90
65146;DHT22;51730;56.950;24.126;2022-12-07T16:16:35;-0.20;99.90
65146;DHT22;51730;56.950;24.126;2022-12-07T16:19:02;-0.30;99.90
65146;DHT22;51730;56.950;24.126;2022-12-07T16:21:29;-0.30;99.90
65146;DHT22;51730;56.950;24.126;2022-12-07T16:23:57;-0.30;99.90
65146;DHT22;51730;56.950;24.126;2022-12-07T16:26:25;-0.30;99.90
65146;DHT22;51730;56.950;24.126;2022-12-07T16:28:58;-0.30;99.90
65146;DHT22;51730;56.950;24.126;2022-12-07T16:31:27;-0.30;99.90
65146;DHT22;51730;56.950;24.126;2022-12-07T16:33:56;-0.30;99.90
65146;DHT22;51730;56.950;24.126;2022-12-07T16:36:24;-0.30;99.90
65146;DHT22;51730;56.950;24.126;2022-12-07T16:39:12;-0.20;99.90
65146;DHT22;51730;56.950;24.126;2022-12-07T16:41:39;-0.20;99.90
65146;DHT22;51730;56.950;24.126;2022-12-07T16:44:10;-0.30;99.90
65146;DHT22;51730;56.950;24.126;2022-12-07T16:46:39;-0.30;99.90
65146;DHT22;51730;56.950;24.126;2022-12-07T16:49:13;-0.20;99.90
65146;DHT22;51730;56.950;24.126;2022-12-07T16:51:41;-0.10;99.90
65146;DHT22;51730;56.950;24.126;2022-12-07T16:54:11;-0.10;99.90
65146;DHT22;51730;56.950;24.126;2022-12-07T16:56:39;-0.10;99.90
65146;DHT22;51730;56.950;24.126;2022-12-07T16:59:06;-0.20;99.90
65146;DHT22;51730;56.950;24.126;2022-12-07T17:01:33;-0.20;99.90
65146;DHT22;51730;56.950;24.126;2022-12-07T17:04:01;-0.20;99.90
65146;DHT22;51730;56.950;24.126;2022-12-07T17:06:30;-0.20;99.90
65146;DHT22;51730;56.950;24.126;2022-12-07T17:09:00;-0.20;99.90
65146;DHT22;51730;56.950;24.126;2022-12-07T17:11:29;-0.30;99.90
65146;DHT22;51730;56.950;24.126;2022-12-07T17:13:59;-0.20;99.90
65146;DHT22;51730;56.950;24.126;2022-12-07T17:16:44;-0.20;99.90
65146;DHT22;51730;56.950;24.126;2022-12-07T17:19:14;-0.20;99.90
65146;DHT22;51730;56.950;24.126;2022-12-07T17:21:42;-0.20;99.90
65146;DHT22;51730;56.950;24.126;2022-12-07T17:24:11;-0.20;99.90
65146;DHT22;51730;56.950;24.126;2022-12-07T17:26:38;-0.20;99.90
65146;DHT22;51730;56.950;24.126;2022-12-07T17:29:06;-0.20;99.90
65146;DHT22;51730;56.950;24.126;2022-12-07T17:31:37;-0.20;99.90
65146;DHT22;51730;56.950;24.126;2022-12-07T17:34:18;-0.10;99.90
65146;DHT22;51730;56.950;24.126;2022-12-07T17:36:48;-0.20;99.90
65146;DHT22;51730;56.950;24.126;2022-12-07T17:39:17;-0.20;99.90
65146;DHT22;51730;56.950;24.126;2022-12-07T17:41:46;-0.20;99.90
65146;DHT22;51730;56.950;24.126;2022-12-07T17:44:32;-0.10;99.90
65146;DHT22;51730;56.950;24.126;2022-12-07T17:46:59;-0.30;99.90
65146;DHT22;51730;56.950;24.126;2022-12-07T17:49:28;-0.30;99.90
65146;DHT22;51730;56.950;24.126;2022-12-07T17:51:56;-0.30;99.90
65146;DHT22;51730;56.950;24.126;2022-12-07T17:54:45;-0.20;99.90
65146;DHT22;51730;56.950;24.126;2022-12-07T17:57:12;-0.20;99.90
65146;DHT22;51730;56.950;24.126;2022-12-07T17:59:39;-0.20;99.90
65146;DHT22;51730;56.950;24.126;2022-12-07T18:02:06;-0.20;99.90
65146;DHT22;51730;56.950;24.126;2022-12-07T18:04:43;-0.20;99.90